createdAt,value
2022-10-24T00:00:20.946Z,91.70
2022-10-24T00:01:20.955Z,92.05
2022-10-24T00:02:21.096Z,91.74
2022-10-24T00:03:20.875Z,91.34
2022-10-24T00:04:20.898Z,90.89
2022-10-24T00:05:20.823Z,90.99
2022-10-24T00:06:20.836Z,90.99
2022-10-24T00:07:20.829Z,91.09
2022-10-24T00:08:20.823Z,90.39
2022-10-24T00:09:20.821Z,90.59
2022-10-24T00:10:20.838Z,91.19
2022-10-24T00:11:20.746Z,91.39
2022-10-24T00:12:20.792Z,91.09
2022-10-24T00:13:20.733Z,91.30
2022-10-24T00:14:20.770Z,90.89
2022-10-24T00:15:20.689Z,91.09
2022-10-24T00:16:20.699Z,90.79
2022-10-24T00:17:20.715Z,90.99
2022-10-24T00:18:20.697Z,90.49
2022-10-24T00:19:20.715Z,89.78
2022-10-24T00:20:20.676Z,89.64
2022-10-24T00:21:20.714Z,89.54
2022-10-24T00:22:20.588Z,89.78
2022-10-24T00:23:20.627Z,90.19
2022-10-24T00:24:20.762Z,89.98
2022-10-24T00:25:20.624Z,90.39
2022-10-24T00:26:20.557Z,90.59
2022-10-24T00:27:20.551Z,90.79
2022-10-24T00:28:20.532Z,90.94
2022-10-24T00:29:20.535Z,90.28
2022-10-24T00:30:20.548Z,89.88
2022-10-24T00:31:20.486Z,90.39
2022-10-24T00:32:20.476Z,90.39
2022-10-24T00:33:20.511Z,89.88
2022-10-24T00:34:20.455Z,90.08
2022-10-24T00:35:20.461Z,90.39
2022-10-24T00:36:20.490Z,90.08
2022-10-24T00:38:20.390Z,89.78
2022-10-24T00:39:20.412Z,90.28
2022-10-24T00:40:20.474Z,90.12
2022-10-24T00:41:20.381Z,89.88
2022-10-24T00:42:20.606Z,89.68
2022-10-24T00:43:20.365Z,89.68
2022-10-24T00:44:20.335Z,88.87
2022-10-24T00:45:20.420Z,88.87
2022-10-24T00:46:20.365Z,88.97
2022-10-24T00:47:20.300Z,89.28
2022-10-24T00:48:20.270Z,89.37
2022-10-24T00:49:20.250Z,88.87
2022-10-24T00:50:20.317Z,88.47
2022-10-24T00:51:20.265Z,88.67
2022-10-24T00:52:20.402Z,88.26
2022-10-24T00:53:20.183Z,88.47
2022-10-24T00:54:20.225Z,88.57
2022-10-24T00:55:20.187Z,88.87
2022-10-24T00:56:20.188Z,88.67
2022-10-24T00:57:20.193Z,88.26
2022-10-24T00:58:20.128Z,88.37
2022-10-24T00:59:20.166Z,88.02
2022-10-24T01:00:20.124Z,88.37
2022-10-24T01:01:20.214Z,87.82
2022-10-24T01:02:20.105Z,88.12
2022-10-24T01:03:20.136Z,88.12
2022-10-24T01:04:20.043Z,87.82
2022-10-24T01:05:20.047Z,87.62
2022-10-24T01:06:20.004Z,88.02
2022-10-24T01:07:20.038Z,87.82
2022-10-24T01:08:20.004Z,87.32
2022-10-24T01:09:20.006Z,87.62
2022-10-24T01:10:19.963Z,86.07
2022-10-24T01:11:20.088Z,85.66
2022-10-24T01:12:19.936Z,85.66
2022-10-24T01:13:19.965Z,86.16
2022-10-24T01:14:19.967Z,85.96
2022-10-24T01:15:19.950Z,86.87
2022-10-24T01:16:19.896Z,86.51
2022-10-24T01:17:19.911Z,85.66
2022-10-24T01:18:19.842Z,85.25
2022-10-24T01:19:19.923Z,85.16
2022-10-24T01:20:19.848Z,85.56
2022-10-24T01:21:19.864Z,86.07
2022-10-24T01:22:19.782Z,85.86
2022-10-24T01:23:19.775Z,85.56
2022-10-24T01:24:19.884Z,85.96
2022-10-24T01:25:19.862Z,85.56
2022-10-24T01:26:19.764Z,86.07
2022-10-24T01:27:19.783Z,85.76
2022-10-24T01:28:19.782Z,85.86
2022-10-24T01:29:19.708Z,86.21
2022-10-24T01:30:19.699Z,85.90
2022-10-24T01:31:19.690Z,86.10
2022-10-24T01:32:19.717Z,86.00
2022-10-24T01:33:19.678Z,86.10
2022-10-24T01:34:19.656Z,86.30
2022-10-24T01:35:19.726Z,86.71
2022-10-24T01:36:19.656Z,86.00
2022-10-24T01:37:19.586Z,86.21
2022-10-24T01:38:19.621Z,86.71
2022-10-24T01:39:19.584Z,86.41
2022-10-24T01:40:19.781Z,86.21
2022-10-24T01:41:19.720Z,85.90
2022-10-24T01:42:19.535Z,85.80
2022-10-24T01:43:19.552Z,85.70
2022-10-24T01:44:19.525Z,85.40
2022-10-24T01:45:19.532Z,85.50
2022-10-24T01:46:19.517Z,85.46
2022-10-24T01:47:19.496Z,85.90
2022-10-24T01:48:19.466Z,86.41
2022-10-24T01:49:19.475Z,86.30
2022-10-24T01:50:19.471Z,86.51
2022-10-24T01:51:19.400Z,86.21
2022-10-24T01:52:19.472Z,86.41
2022-10-24T01:53:21.196Z,86.30
2022-10-24T01:54:19.404Z,86.21
2022-10-24T01:55:28.194Z,86.10
2022-10-24T01:56:19.461Z,85.80
2022-10-24T01:57:19.294Z,86.21
2022-10-24T01:58:19.305Z,86.41
2022-10-24T01:59:19.293Z,86.00
2022-10-24T02:00:19.260Z,85.70
2022-10-24T02:01:19.332Z,85.60
2022-10-24T02:02:19.230Z,85.36
2022-10-24T02:03:19.213Z,85.90
2022-10-24T02:04:19.233Z,85.80
2022-10-24T02:05:19.212Z,85.60
2022-10-24T02:06:19.173Z,85.36
2022-10-24T02:07:19.163Z,85.60
2022-10-24T02:08:19.156Z,86.00
2022-10-24T02:09:19.156Z,85.60
2022-10-24T02:10:19.121Z,84.95
2022-10-24T02:11:19.128Z,85.05
2022-10-24T02:12:19.084Z,84.75
2022-10-24T02:13:19.091Z,84.75
2022-10-24T02:14:19.046Z,84.95
2022-10-24T02:15:19.053Z,85.60
2022-10-24T02:16:19.085Z,85.30
2022-10-24T02:17:19.153Z,84.85
2022-10-24T02:18:19.000Z,85.25
2022-10-24T02:19:18.996Z,85.36
2022-10-24T02:20:19.001Z,85.80
2022-10-24T02:21:18.970Z,85.50
2022-10-24T02:22:18.968Z,85.50
2022-10-24T02:23:18.952Z,85.19
2022-10-24T02:24:18.907Z,84.99
2022-10-24T02:25:18.936Z,85.19
2022-10-24T02:26:18.904Z,85.30
2022-10-24T02:27:18.895Z,84.79
2022-10-24T02:28:18.867Z,84.89
2022-10-24T02:29:18.866Z,84.85
2022-10-24T02:30:18.871Z,84.45
2022-10-24T02:31:18.841Z,84.25
2022-10-24T02:32:18.804Z,84.45
2022-10-24T02:33:18.812Z,84.45
2022-10-24T02:34:18.842Z,84.55
2022-10-24T02:35:18.772Z,84.69
2022-10-24T02:36:18.764Z,85.30
2022-10-24T02:37:18.780Z,84.99
2022-10-24T02:38:18.721Z,84.49
2022-10-24T02:39:18.723Z,84.29
2022-10-24T02:40:18.727Z,84.69
2022-10-24T02:41:18.698Z,84.79
2022-10-24T02:42:18.745Z,84.29
2022-10-24T02:43:18.727Z,84.59
2022-10-24T02:44:18.651Z,84.49
2022-10-24T02:45:18.644Z,84.79
2022-10-24T02:46:18.623Z,84.69
2022-10-24T02:47:18.648Z,84.49
2022-10-24T02:48:18.589Z,85.10
2022-10-24T02:49:18.616Z,84.69
2022-10-24T02:50:18.619Z,84.39
2022-10-24T02:51:18.560Z,83.78
2022-10-24T02:52:18.557Z,83.78
2022-10-24T02:53:18.542Z,83.68
2022-10-24T02:54:18.592Z,83.68
2022-10-24T02:55:18.538Z,84.29
2022-10-24T02:56:18.482Z,84.19
2022-10-24T02:57:18.480Z,84.19
2022-10-24T02:58:18.524Z,83.48
2022-10-24T02:59:18.458Z,83.98
2022-10-24T03:00:18.460Z,84.09
2022-10-24T03:01:18.669Z,83.68
2022-10-24T03:02:18.418Z,83.58
2022-10-24T03:03:18.394Z,83.28
2022-10-24T03:04:18.407Z,83.18
2022-10-24T03:05:18.388Z,83.28
2022-10-24T03:06:18.361Z,83.18
2022-10-24T03:07:18.476Z,84.09
2022-10-24T03:08:18.315Z,84.33
2022-10-24T03:09:18.317Z,83.68
2022-10-24T03:10:18.335Z,83.78
2022-10-24T03:11:18.298Z,83.48
2022-10-24T03:12:18.301Z,83.58
2022-10-24T03:13:18.251Z,83.58
2022-10-24T03:14:18.233Z,83.48
2022-10-24T03:15:18.246Z,84.03
2022-10-24T03:16:18.218Z,84.12
2022-10-24T03:17:18.215Z,83.92
2022-10-24T03:18:18.226Z,83.28
2022-10-24T03:19:18.169Z,83.28
2022-10-24T03:20:18.159Z,83.68
2022-10-24T03:21:18.161Z,83.82
2022-10-24T03:22:18.124Z,84.23
2022-10-24T03:23:18.127Z,84.23
2022-10-24T03:24:26.790Z,84.63
2022-10-24T03:25:19.173Z,84.63
2022-10-24T03:26:18.085Z,84.53
2022-10-24T03:27:18.078Z,84.33
2022-10-24T03:28:18.038Z,84.53
2022-10-24T03:29:18.027Z,84.73
2022-10-24T03:30:18.096Z,84.03
2022-10-24T03:31:18.017Z,83.72
2022-10-24T03:32:18.087Z,83.72
2022-10-24T03:33:17.983Z,84.43
2022-10-24T03:34:17.976Z,84.73
2022-10-24T03:35:17.991Z,84.87
2022-10-24T03:36:17.966Z,84.03
2022-10-24T03:37:17.924Z,84.12
2022-10-24T03:38:17.974Z,84.23
2022-10-24T03:39:17.938Z,84.12
2022-10-24T03:40:17.906Z,84.03
2022-10-24T03:41:17.880Z,84.23
2022-10-24T03:42:17.891Z,84.43
2022-10-24T03:43:17.848Z,84.12
2022-10-24T03:44:17.827Z,84.63
2022-10-24T03:45:17.807Z,84.93
2022-10-24T03:46:17.788Z,84.43
2022-10-24T03:47:17.810Z,84.33
2022-10-24T03:48:17.800Z,84.73
2022-10-24T03:49:17.784Z,84.53
2022-10-24T03:50:17.810Z,84.33
2022-10-24T03:51:17.786Z,84.53
2022-10-24T03:52:17.726Z,84.93
2022-10-24T03:53:17.711Z,84.63
2022-10-24T03:54:17.770Z,84.93
2022-10-24T03:55:17.708Z,84.63
2022-10-24T03:56:17.695Z,84.53
2022-10-24T03:57:17.735Z,84.73
2022-10-24T03:58:17.671Z,84.43
2022-10-24T03:59:17.622Z,84.43
2022-10-24T04:00:17.668Z,84.93
2022-10-24T04:01:17.751Z,84.97
2022-10-24T04:02:17.606Z,84.57
2022-10-24T04:03:17.609Z,84.73
2022-10-24T04:04:17.562Z,84.63
2022-10-24T04:05:17.564Z,84.73
2022-10-24T04:06:17.551Z,84.33
2022-10-24T04:07:17.583Z,84.63
2022-10-24T04:08:17.544Z,84.43
2022-10-24T04:09:17.524Z,84.12
2022-10-24T04:10:17.466Z,84.53
2022-10-24T04:11:17.503Z,84.33
2022-10-24T04:12:17.477Z,84.53
2022-10-24T04:13:17.460Z,84.43
2022-10-24T04:14:17.446Z,84.63
2022-10-24T04:15:17.433Z,84.87
2022-10-24T04:16:17.391Z,85.08
2022-10-24T04:17:17.391Z,85.38
2022-10-24T04:18:17.387Z,85.17
2022-10-24T04:19:17.384Z,85.08
2022-10-24T04:20:17.335Z,85.17
2022-10-24T04:21:21.453Z,85.38
2022-10-24T04:22:17.358Z,84.67
2022-10-24T04:23:17.306Z,84.67
2022-10-24T04:24:17.295Z,84.06
2022-10-24T04:25:17.273Z,84.12
2022-10-24T04:26:17.256Z,84.12
2022-10-24T04:27:17.310Z,84.37
2022-10-24T04:28:17.264Z,84.37
2022-10-24T04:29:17.226Z,84.67
2022-10-24T04:30:17.219Z,84.47
2022-10-24T04:31:19.592Z,84.37
2022-10-24T04:32:18.201Z,84.37
2022-10-24T04:33:17.165Z,84.87
2022-10-24T04:34:17.174Z,84.47
2022-10-24T04:35:17.133Z,84.47
2022-10-24T04:36:17.143Z,84.06
2022-10-24T04:37:17.259Z,84.17
2022-10-24T04:38:17.107Z,84.27
2022-10-24T04:39:17.095Z,84.17
2022-10-24T04:40:17.112Z,84.47
2022-10-24T04:41:17.078Z,84.27
2022-10-24T04:42:17.027Z,84.17
2022-10-24T04:43:17.024Z,84.57
2022-10-24T04:44:17.034Z,84.67
2022-10-24T04:45:16.984Z,84.77
2022-10-24T04:46:16.988Z,84.77
2022-10-24T04:47:17.065Z,84.87
2022-10-24T04:48:16.959Z,84.97
2022-10-24T04:49:16.976Z,84.97
2022-10-24T04:50:16.929Z,85.28
2022-10-24T04:51:19.953Z,85.52
2022-10-24T04:52:17.958Z,85.72
2022-10-24T04:53:16.892Z,85.93
2022-10-24T04:54:16.915Z,86.13
2022-10-24T04:55:16.882Z,85.42
2022-10-24T04:56:16.870Z,85.62
2022-10-24T04:57:16.821Z,85.52
2022-10-24T04:58:16.821Z,86.33
2022-10-24T04:59:16.841Z,86.13
2022-10-24T05:00:16.833Z,85.52
2022-10-24T05:01:16.852Z,85.62
2022-10-24T05:02:16.848Z,85.62
2022-10-24T05:03:16.791Z,85.52
2022-10-24T05:04:16.778Z,85.52
2022-10-24T05:05:16.729Z,85.42
2022-10-24T05:06:16.736Z,85.72
2022-10-24T05:07:16.711Z,85.62
2022-10-24T05:08:16.752Z,85.82
2022-10-24T05:09:16.734Z,85.62
2022-10-24T05:10:16.664Z,85.82
2022-10-24T05:11:16.633Z,85.31
2022-10-24T05:12:16.701Z,85.62
2022-10-24T05:13:16.622Z,85.62
2022-10-24T05:14:16.629Z,85.52
2022-10-24T05:15:16.645Z,85.52
2022-10-24T05:16:16.584Z,85.62
2022-10-24T05:17:17.239Z,85.42
2022-10-24T05:18:16.538Z,85.72
2022-10-24T05:19:16.548Z,85.52
2022-10-24T05:20:16.538Z,85.72
2022-10-24T05:21:16.567Z,84.61
2022-10-24T05:22:16.514Z,83.76
2022-10-24T05:23:16.480Z,84.17
2022-10-24T05:24:16.512Z,83.96
2022-10-24T05:25:16.530Z,83.15
2022-10-24T05:26:16.519Z,83.46
2022-10-24T05:27:16.477Z,83.26
2022-10-24T05:28:16.428Z,82.95
2022-10-24T05:29:16.474Z,83.86
2022-10-24T05:30:16.440Z,83.46
2022-10-24T05:31:16.382Z,83.46
2022-10-24T05:32:16.374Z,83.76
2022-10-24T05:33:16.469Z,83.90
2022-10-24T05:34:16.391Z,84.20
2022-10-24T05:35:16.313Z,84.31
2022-10-24T05:36:16.399Z,84.61
2022-10-24T05:37:16.351Z,84.51
2022-10-24T05:38:16.296Z,85.22
2022-10-24T05:39:16.280Z,85.02
2022-10-24T05:40:16.349Z,84.81
2022-10-24T05:41:16.293Z,84.51
2022-10-24T05:42:16.213Z,84.71
2022-10-24T05:43:16.227Z,84.51
2022-10-24T05:44:16.208Z,85.42
2022-10-24T05:45:16.203Z,85.52
2022-10-24T05:46:16.205Z,85.56
2022-10-24T05:47:16.169Z,85.56
2022-10-24T05:48:16.188Z,85.66
2022-10-24T05:49:16.159Z,85.86
2022-10-24T05:50:16.169Z,86.16
2022-10-24T05:51:16.108Z,86.71
2022-10-24T05:52:16.110Z,86.51
2022-10-24T05:53:16.279Z,85.96
2022-10-24T05:54:16.142Z,86.47
2022-10-24T05:55:18.196Z,86.51
2022-10-24T05:56:16.029Z,86.51
2022-10-24T05:57:16.001Z,86.91
2022-10-24T05:58:16.066Z,86.51
2022-10-24T05:59:16.029Z,86.41
2022-10-24T06:00:16.066Z,86.51
2022-10-24T06:01:16.042Z,86.31
2022-10-24T06:02:16.051Z,86.51
2022-10-24T06:03:15.953Z,86.10
2022-10-24T06:04:15.967Z,86.61
2022-10-24T06:05:15.948Z,87.02
2022-10-24T06:06:15.905Z,86.82
2022-10-24T06:07:15.987Z,86.71
2022-10-24T06:08:15.896Z,86.51
2022-10-24T06:09:15.914Z,86.21
2022-10-24T06:10:15.896Z,86.31
2022-10-24T06:11:15.929Z,86.82
2022-10-24T06:12:15.895Z,86.91
2022-10-24T06:13:15.829Z,86.51
2022-10-24T06:14:16.233Z,86.82
2022-10-24T06:15:15.821Z,86.51
2022-10-24T06:16:15.794Z,86.00
2022-10-24T06:17:15.755Z,86.00
2022-10-24T06:18:15.795Z,85.80
2022-10-24T06:19:15.735Z,85.50
2022-10-24T06:20:15.763Z,85.30
2022-10-24T06:21:15.790Z,84.85
2022-10-24T06:22:15.680Z,84.75
2022-10-24T06:23:15.679Z,84.55
2022-10-24T06:24:15.696Z,86.07
2022-10-24T06:25:15.651Z,84.65
2022-10-24T06:26:17.429Z,85.25
2022-10-24T06:27:15.625Z,85.50
2022-10-24T06:28:15.631Z,85.39
2022-10-24T06:29:15.622Z,85.10
2022-10-24T06:30:15.578Z,85.19
2022-10-24T06:31:15.552Z,84.48
2022-10-24T06:32:15.568Z,85.10
2022-10-24T06:33:15.520Z,85.19
2022-10-24T06:34:24.267Z,84.59
2022-10-24T06:35:24.076Z,85.10
2022-10-24T06:36:15.521Z,84.65
2022-10-24T06:37:15.471Z,84.65
2022-10-24T06:38:15.504Z,85.16
2022-10-24T06:39:15.476Z,85.10
2022-10-24T06:40:15.490Z,84.89
2022-10-24T06:41:15.448Z,84.14
2022-10-24T06:42:15.418Z,84.25
2022-10-24T06:43:15.422Z,84.85
2022-10-24T06:44:15.389Z,84.04
2022-10-24T06:45:15.407Z,84.14
2022-10-24T06:46:15.347Z,84.25
2022-10-24T06:47:15.358Z,84.65
2022-10-24T06:48:15.347Z,84.69
2022-10-24T06:49:15.311Z,84.28
2022-10-24T06:50:15.299Z,84.25
2022-10-24T06:51:15.315Z,84.14
2022-10-24T06:52:15.293Z,84.85
2022-10-24T06:53:15.326Z,84.99
2022-10-24T06:54:15.325Z,84.39
2022-10-24T06:55:15.294Z,84.48
2022-10-24T06:56:15.237Z,84.28
2022-10-24T06:57:15.252Z,84.28
2022-10-24T06:58:15.243Z,84.55
2022-10-24T06:59:15.173Z,84.04
2022-10-24T07:00:15.201Z,84.14
2022-10-24T07:01:15.381Z,83.74
2022-10-24T07:02:15.233Z,84.25
2022-10-24T07:03:15.157Z,83.94
2022-10-24T07:04:15.210Z,84.04
2022-10-24T07:05:15.108Z,83.94
2022-10-24T07:06:15.138Z,83.84
2022-10-24T07:07:15.178Z,84.25
2022-10-24T07:08:15.117Z,83.94
2022-10-24T07:09:15.657Z,84.14
2022-10-24T07:10:15.024Z,84.14
2022-10-24T07:11:15.046Z,84.04
2022-10-24T07:12:15.054Z,84.34
2022-10-24T07:13:15.007Z,84.04
2022-10-24T07:14:14.981Z,83.74
2022-10-24T07:15:15.059Z,83.84
2022-10-24T07:16:15.025Z,83.94
2022-10-24T07:17:14.941Z,83.84
2022-10-24T07:18:14.935Z,83.64
2022-10-24T07:19:14.966Z,84.25
2022-10-24T07:20:14.900Z,83.23
2022-10-24T07:21:14.909Z,82.93
2022-10-24T07:22:14.885Z,83.64
2022-10-24T07:23:14.862Z,83.94
2022-10-24T07:24:14.867Z,83.44
2022-10-24T07:25:14.870Z,82.42
2022-10-24T07:26:14.834Z,82.62
2022-10-24T07:27:14.812Z,83.23
2022-10-24T07:28:14.843Z,81.98
2022-10-24T07:29:14.766Z,82.18
2022-10-24T07:30:14.756Z,81.88
2022-10-24T07:31:14.764Z,82.18
2022-10-24T07:32:14.764Z,81.98
2022-10-24T07:33:14.763Z,82.08
2022-10-24T07:34:14.701Z,81.98
2022-10-24T07:35:14.675Z,81.48
2022-10-24T07:36:14.712Z,81.98
2022-10-24T07:37:14.763Z,81.23
2022-10-24T07:38:16.511Z,81.23
2022-10-24T07:39:14.656Z,81.64
2022-10-24T07:40:14.660Z,81.44
2022-10-24T07:41:14.637Z,81.23
2022-10-24T07:42:14.601Z,81.34
2022-10-24T07:43:14.568Z,81.74
2022-10-24T07:44:14.673Z,81.78
2022-10-24T07:45:14.567Z,81.68
2022-10-24T07:46:14.564Z,81.17
2022-10-24T07:47:14.572Z,81.57
2022-10-24T07:48:14.555Z,81.23
2022-10-24T07:49:14.522Z,81.44
2022-10-24T07:50:14.487Z,81.64
2022-10-24T07:51:14.524Z,82.59
2022-10-24T07:52:14.491Z,81.57
2022-10-24T07:53:14.497Z,81.13
2022-10-24T07:54:14.521Z,81.23
2022-10-24T07:55:14.421Z,81.54
2022-10-24T07:56:14.421Z,80.83
2022-10-24T08:50:42.572Z,78.19
2022-10-24T08:51:40.512Z,78.59
2022-10-24T08:52:40.279Z,77.99
2022-10-24T08:53:40.369Z,78.59
2022-10-24T08:54:40.269Z,77.95
2022-10-24T08:55:55.687Z,77.55
2022-10-24T08:56:41.874Z,77.75
2022-10-24T08:57:40.386Z,78.36
2022-10-24T08:58:40.253Z,78.66
2022-10-24T08:59:40.185Z,79.30
2022-10-24T09:00:40.215Z,79.50
2022-10-24T09:01:40.479Z,79.50
2022-10-24T09:02:40.651Z,79.30
2022-10-24T09:03:56.989Z,79.30
2022-10-24T09:04:41.236Z,78.90
2022-10-24T09:05:40.328Z,79.71
2022-10-24T09:06:40.377Z,79.81
2022-10-24T09:07:40.163Z,80.01
2022-10-24T09:08:40.058Z,79.50
2022-10-24T09:09:40.355Z,79.50
2022-10-24T09:10:40.221Z,78.59
2022-10-24T09:11:40.030Z,78.30
2022-10-24T09:12:40.076Z,78.30
2022-10-24T09:13:39.971Z,78.36
2022-10-24T09:14:40.134Z,78.46
2022-10-24T09:15:39.943Z,78.56
2022-10-24T09:16:40.033Z,78.66
2022-10-24T09:17:40.539Z,78.06
2022-10-24T09:18:39.931Z,78.76
2022-10-24T09:19:39.968Z,77.95
2022-10-24T09:20:40.045Z,78.22
2022-10-24T09:21:39.969Z,77.31
2022-10-24T09:22:43.481Z,78.22
2022-10-24T09:23:39.848Z,77.21
2022-10-24T09:24:39.884Z,78.52
2022-10-24T09:25:39.927Z,77.82
2022-10-24T09:26:39.839Z,77.42
2022-10-24T09:27:39.813Z,77.51
2022-10-24T09:28:39.874Z,77.72
2022-10-24T09:29:39.827Z,77.51
2022-10-24T09:30:39.816Z,78.12
2022-10-24T09:31:39.747Z,78.02
2022-10-24T09:32:40.042Z,78.12
2022-10-24T09:33:39.737Z,78.83
2022-10-24T09:34:39.929Z,77.86
2022-10-24T09:35:39.731Z,78.42
2022-10-24T09:36:39.743Z,78.42
2022-10-24T09:37:43.907Z,78.12
2022-10-24T09:38:40.932Z,77.62
2022-10-24T09:39:39.753Z,77.92
2022-10-24T09:40:39.703Z,78.22
2022-10-24T09:41:39.602Z,78.63
2022-10-24T09:42:39.650Z,78.63
2022-10-24T09:43:39.606Z,79.13
2022-10-24T09:44:39.842Z,78.12
2022-10-24T09:45:40.071Z,78.08
2022-10-24T09:46:39.586Z,77.88
2022-10-24T09:47:39.565Z,77.08
2022-10-24T09:48:39.492Z,77.88
2022-10-24T09:49:39.492Z,76.47
2022-10-24T09:50:39.503Z,76.84
2022-10-24T09:51:39.462Z,76.94
2022-10-24T09:52:39.535Z,75.83
2022-10-24T09:53:39.474Z,75.19
2022-10-24T09:54:39.456Z,75.09
2022-10-24T09:55:39.681Z,75.09
2022-10-24T09:56:39.488Z,75.79
2022-10-24T09:57:39.460Z,75.46
2022-10-24T09:58:39.352Z,74.89
2022-10-24T09:59:39.401Z,76.10
2022-10-24T10:00:39.346Z,76.20
2022-10-24T10:01:39.723Z,75.63
2022-10-24T10:02:39.799Z,74.82
2022-10-24T10:03:40.242Z,75.43
2022-10-24T10:04:39.429Z,74.93
2022-10-24T10:05:39.293Z,74.52
2022-10-24T10:06:39.289Z,74.73
2022-10-24T10:07:39.537Z,75.73
2022-10-24T10:08:39.381Z,77.34
2022-10-24T10:09:39.295Z,77.78
2022-10-24T10:10:39.395Z,75.96
2022-10-24T10:11:40.760Z,76.27
2022-10-24T10:12:40.312Z,76.07
2022-10-24T10:13:39.678Z,77.58
2022-10-24T10:14:39.336Z,77.38
2022-10-24T10:15:39.534Z,78.08
2022-10-24T10:16:39.183Z,76.94
2022-10-24T10:17:39.183Z,76.84
2022-10-24T10:18:39.327Z,75.02
2022-10-24T10:19:41.794Z,75.09
2022-10-24T10:20:39.446Z,74.69
2022-10-24T10:21:39.048Z,76.06
2022-10-24T10:22:39.076Z,74.15
2022-10-24T10:23:39.042Z,74.35
2022-10-24T10:24:44.411Z,73.65
2022-10-24T10:25:39.650Z,74.75
2022-10-24T10:26:39.162Z,73.85
2022-10-24T10:27:39.008Z,75.52
2022-10-24T10:28:39.053Z,73.85
2022-10-24T10:29:39.025Z,74.21
2022-10-24T10:30:39.004Z,74.21
2022-10-24T10:31:38.935Z,73.71
2022-10-24T10:32:38.954Z,73.91
2022-10-24T10:33:38.913Z,74.21
2022-10-24T10:34:39.339Z,72.84
2022-10-24T10:35:39.206Z,73.24
2022-10-24T10:36:38.926Z,73.35
2022-10-24T10:37:38.970Z,73.75
2022-10-24T10:38:38.902Z,73.55
2022-10-24T10:39:43.117Z,73.81
2022-10-24T10:40:40.079Z,74.32
2022-10-24T10:41:43.858Z,73.51
2022-10-24T10:42:38.826Z,73.27
2022-10-24T10:43:38.879Z,73.47
2022-10-24T10:44:38.910Z,71.94
2022-10-24T10:45:38.858Z,72.74
2022-10-24T10:46:38.774Z,72.13
2022-10-24T10:47:38.785Z,71.73
2022-10-24T10:48:39.445Z,71.53
2022-10-24T10:49:38.852Z,71.23
2022-10-24T10:50:38.890Z,71.67
2022-10-24T10:51:38.687Z,73.68
2022-10-24T10:52:38.995Z,72.30
2022-10-24T10:53:38.782Z,73.21
2022-10-24T10:54:38.671Z,72.91
2022-10-24T10:55:38.706Z,72.50
2022-10-24T10:56:38.822Z,72.61
2022-10-24T10:57:38.610Z,73.41
2022-10-24T10:58:38.583Z,73.51
2022-10-24T10:59:39.498Z,73.81
2022-10-24T11:00:38.627Z,72.50
2022-10-24T11:01:38.754Z,73.81
2022-10-24T11:02:38.847Z,73.21
2022-10-24T11:03:38.843Z,73.35
2022-10-24T11:04:38.558Z,74.05
2022-10-24T11:05:38.442Z,74.15
2022-10-24T11:06:38.477Z,74.05
2022-10-24T11:07:38.541Z,73.85
2022-10-24T11:08:38.508Z,75.46
2022-10-24T11:09:38.879Z,74.75
2022-10-24T11:10:38.477Z,73.55
2022-10-24T11:11:38.415Z,74.25
2022-10-24T11:12:38.629Z,74.55
2022-10-24T11:13:38.441Z,75.15
2022-10-24T11:14:38.514Z,74.75
2022-10-24T11:15:38.876Z,75.59
2022-10-24T11:16:38.337Z,75.46
2022-10-24T11:17:38.546Z,75.56
2022-10-24T11:18:38.314Z,75.76
2022-10-24T11:19:38.336Z,75.56
2022-10-24T11:20:38.332Z,74.55
2022-10-24T11:21:38.386Z,74.35
2022-10-24T11:22:38.328Z,74.85
2022-10-24T11:24:38.496Z,75.90
2022-10-24T11:25:38.207Z,75.09
2022-10-24T11:26:38.191Z,75.90
2022-10-24T11:27:53.600Z,75.13
2022-10-24T11:28:38.375Z,75.23
2022-10-24T11:29:38.208Z,75.83
2022-10-24T11:30:42.270Z,75.83
2022-10-24T11:31:38.150Z,75.59
2022-10-24T11:32:40.219Z,75.09
2022-10-24T11:33:38.219Z,74.89
2022-10-24T11:34:38.303Z,74.79
2022-10-24T11:35:38.045Z,75.13
2022-10-24T11:36:38.113Z,75.53
2022-10-24T11:37:38.267Z,76.34
2022-10-24T11:39:09.947Z,77.14
2022-10-24T11:40:09.712Z,77.58
2022-10-24T11:41:09.822Z,77.28
2022-10-24T11:42:09.789Z,77.98
2022-10-24T11:43:09.644Z,78.89
2022-10-24T11:44:09.673Z,77.58
2022-10-24T11:45:09.645Z,78.28
2022-10-24T11:46:10.453Z,78.99
2022-10-24T11:47:09.645Z,77.88
2022-10-24T11:48:09.578Z,77.84
2022-10-24T11:49:10.350Z,77.84
2022-10-24T11:50:41.821Z,78.15
2022-10-24T11:51:41.856Z,76.94
2022-10-24T11:52:41.941Z,77.04
2022-10-24T11:53:41.877Z,77.44
2022-10-24T11:54:42.826Z,77.17
2022-10-24T11:55:41.731Z,77.08
2022-10-24T11:56:41.855Z,77.28
2022-10-24T11:57:43.015Z,76.77
2022-10-24T11:58:41.902Z,76.57
2022-10-24T11:59:43.287Z,77.17
2022-10-24T12:00:41.751Z,76.87
2022-10-24T12:01:41.738Z,76.17
2022-10-24T12:02:41.755Z,76.87
2022-10-24T12:03:41.603Z,76.40
2022-10-24T12:04:41.663Z,76.67
2022-10-24T12:05:45.425Z,77.92
2022-10-24T12:06:41.644Z,78.63
2022-10-24T12:07:42.085Z,78.22
2022-10-24T12:08:41.458Z,79.13
2022-10-24T12:09:41.489Z,80.44
2022-10-24T12:10:41.548Z,79.77
2022-10-24T12:11:41.415Z,78.96
2022-10-24T12:12:41.514Z,79.13
2022-10-24T12:13:41.388Z,78.72
2022-10-24T12:14:41.419Z,78.72
2022-10-24T12:15:41.614Z,79.23
2022-10-24T12:16:41.332Z,79.43
2022-10-24T12:17:41.371Z,79.33
2022-10-24T12:18:41.356Z,78.83
2022-10-24T12:19:41.392Z,78.72
2022-10-24T12:20:41.360Z,78.72
2022-10-24T12:21:41.522Z,78.63
2022-10-24T12:22:41.357Z,78.02
2022-10-24T12:23:41.365Z,78.32
2022-10-24T12:24:41.280Z,78.72
2022-10-24T12:25:45.625Z,79.19
2022-10-24T12:26:42.284Z,78.39
2022-10-24T12:27:41.232Z,77.98
2022-10-24T12:28:41.347Z,77.58
2022-10-24T12:29:41.225Z,77.58
2022-10-24T12:30:41.440Z,78.49
2022-10-24T12:32:12.739Z,78.79
2022-10-24T12:33:12.738Z,79.80
2022-10-24T12:34:12.651Z,79.33
2022-10-24T12:35:29.550Z,79.63
2022-10-24T12:36:13.621Z,79.73
2022-10-24T12:37:12.655Z,79.43
2022-10-24T12:38:12.625Z,79.33
2022-10-24T12:39:12.662Z,79.03
2022-10-24T12:40:12.582Z,80.00
2022-10-24T12:41:12.633Z,79.33
2022-10-24T12:42:12.593Z,79.19
2022-10-24T12:43:12.580Z,78.59
2022-10-24T12:44:12.670Z,77.98
2022-10-24T12:45:12.560Z,78.19
2022-10-24T12:46:13.332Z,78.69
2022-10-24T12:47:12.531Z,77.48
2022-10-24T12:48:12.589Z,78.89
2022-10-24T12:49:12.690Z,78.49
2022-10-24T12:50:12.462Z,77.17
2022-10-24T12:51:12.470Z,77.28
2022-10-24T12:52:12.466Z,77.08
2022-10-24T12:53:12.533Z,77.17
2022-10-24T12:54:12.407Z,77.84
2022-10-24T12:55:12.412Z,77.64
2022-10-24T12:56:12.392Z,77.95
2022-10-24T12:57:12.371Z,77.84
2022-10-24T12:58:12.328Z,77.48
2022-10-24T12:59:12.377Z,77.55
2022-10-24T13:00:12.367Z,77.55
2022-10-24T13:01:12.365Z,77.44
2022-10-24T13:02:12.477Z,77.40
2022-10-24T13:03:12.298Z,76.60
2022-10-24T13:04:12.257Z,76.30
2022-10-24T13:05:12.252Z,77.20
2022-10-24T13:06:12.268Z,76.90
2022-10-24T13:07:12.290Z,77.31
2022-10-24T13:08:12.188Z,76.70
2022-10-24T13:09:12.316Z,76.50
2022-10-24T13:10:12.209Z,76.30
2022-10-24T13:11:12.263Z,76.40
2022-10-24T13:12:12.168Z,77.11
2022-10-24T13:13:12.230Z,76.50
2022-10-24T13:14:12.097Z,77.11
2022-10-24T13:15:12.113Z,75.86
2022-10-24T13:16:12.429Z,76.46
2022-10-24T13:17:12.165Z,76.56
2022-10-24T13:18:12.146Z,75.56
2022-10-24T13:19:12.203Z,77.20
2022-10-24T13:20:12.076Z,77.20
2022-10-24T13:21:14.851Z,76.30
2022-10-24T13:22:11.993Z,76.90
2022-10-24T13:23:12.004Z,76.26
2022-10-24T13:24:12.071Z,77.27
2022-10-24T13:25:13.698Z,77.97
2022-10-24T13:26:12.008Z,77.07
2022-10-24T13:27:13.095Z,77.07
2022-10-24T13:28:12.124Z,77.23
2022-10-24T13:29:11.958Z,77.03
2022-10-24T13:30:11.965Z,76.43
2022-10-24T13:31:12.063Z,76.93
2022-10-24T13:32:12.300Z,76.83
2022-10-24T13:33:11.859Z,77.73
2022-10-24T13:34:11.900Z,77.33
2022-10-24T13:35:11.938Z,77.47
2022-10-24T13:36:11.832Z,78.07
2022-10-24T13:37:11.878Z,78.98
2022-10-24T13:38:11.864Z,78.78
2022-10-24T13:39:11.841Z,77.67
2022-10-24T13:40:11.815Z,77.57
2022-10-24T13:41:11.775Z,77.87
2022-10-24T13:42:11.844Z,78.38
2022-10-24T13:43:13.036Z,76.67
2022-10-24T13:44:11.828Z,78.07
2022-10-24T13:45:11.793Z,77.67
2022-10-24T13:46:13.217Z,77.67
2022-10-24T13:47:11.708Z,77.07
2022-10-24T13:48:13.199Z,77.37
2022-10-24T13:49:11.706Z,77.77